Terminal Aerodrome Forecast
Issued by NWS Bismarck, ND

Home | Current Version | Previous Version | Text Only | Print | Product List | Glossary On
Versions: 1 2 3 4 5 6 7 8 9 10 11 12 13 14 15 16 17 18 19
000
FTUS43 KBIS 070523
TAFBIS
TAF
KBIS 070523Z 0706/0806 34005KT 6SM -SHRA BR SCT007 OVC035
      TEMPO 0706/0710 10003KT 3SM SHRA BR OVC005
     FM071600 32018G26KT P6SM SCT015 OVC030
     FM080200 33008KT P6SM SCT030 OVC100=

USA.gov is the U.S. government's official web portal to all federal, state and local government web resources and services.